Bel Air Beach, Iowa
Current Conditions -  °F | °C
As of 2:35 AM on Wednesday 26 Nov 2014 (Local Time) from KSLB Reporting Station
Haze Haze  
Wind Chill: 20°   Ceiling: 400
Heat Index: 30°   Visibility: 3mi
Dew Point: 28°   Wind: 14mph
Humidity: 93%   Direction: 140°SE
Pressure: 29.83"   Gusts: NA
Location:  42.674°N, 95.1635°W
Report Text: KSLB 260835Z AUTO 14012KT 3SM BR OVC004 M01/M02 A2983 RMK AO2
Loading
Personal Weather Stations






























Interactive Weather Map New forecast layout! Learn more

10-Day Weather Forecast

Advertisements
Track Severe Weather on mobile